Terminal Aerodrome Forecast
Issued by NWS Jackson, MS

Home | Current Version | Previous Version | Text Only | Print | Product List | Glossary On
Versions: 1 2 3 4 5 6 7 8 9 10 11 12 13
000
FTUS44 KMEG 281804 AAA
TAFTUP
TAF AMD
KTUP 281804Z 2818/2918 15006KT P6SM SCT050
     FM290100 10003KT P6SM SCT050
      TEMPO 2912/2915 SCT012
     FM291600 18007KT P6SM SCT040=

USA.gov is the U.S. government's official web portal to all federal, state and local government web resources and services.